Terminal Aerodrome Forecast
Issued by NWS

Home | Current Version | Previous Version | Text Only | Print | Product List | Glossary On
Versions: 1 2 3 4 5 6 7 8 9 10 11 12 13 14 15 16 17 18 19
000
FTUS43 KUNR 231200 AAA
TAFGCC
TAF AMD
KGCC 231257Z 2313/2412 16018KT P6SM SKC
     FM232200 16017KT P6SM VCTS SCT080CB
     FM240400 16019KT P6SM SCT150
     FM241000 20011KT P6SM SKC=

USA.gov is the U.S. government's official web portal to all federal, state and local government web resources and services.